Time;durP1;ratioP1;P1;durP2;ratioP2;P2;SDS_P1;SDS_P2;PMS_P1;PMS_P2;Temp;Humidity;BMP_temperature;BMP_pressure;BME280_temperature;BME280_humidity;BME280_pressure;Samples;Min_cycle;Max_cycle;Signal;HPM_P1;HPM_P2
2020/12/02 00:02:33;;;;;;;17.97;13.77;;;6.00;99.90;;;;;;4969482;28;20209;-78
2020/12/02 00:05:07;;;;;;;18.13;13.13;;;6.00;99.90;;;;;;4972304;28;20465;-78
2020/12/02 00:07:34;;;;;;;16.08;12.68;;;6.00;99.90;;;;;;4956864;28;20265;-78
2020/12/02 00:10:00;;;;;;;17.60;13.38;;;6.00;99.90;;;;;;4957835;28;20706;-78
2020/12/02 00:12:26;;;;;;;18.60;14.07;;;6.00;99.90;;;;;;4971477;28;20298;-78
2020/12/02 00:14:52;;;;;;;20.38;14.27;;;6.00;99.90;;;;;;4950815;28;20216;-78
2020/12/02 00:17:20;;;;;;;17.63;13.93;;;5.90;99.90;;;;;;4946289;28;20670;-78
2020/12/02 00:19:50;;;;;;;20.00;13.90;;;5.90;99.90;;;;;;4952934;28;20274;-78
2020/12/02 00:22:18;;;;;;;20.95;14.48;;;5.90;99.90;;;;;;4969649;28;20262;-79
2020/12/02 00:24:44;;;;;;;24.52;16.00;;;5.90;99.90;;;;;;4964233;28;20208;-79
2020/12/02 00:27:14;;;;;;;18.93;14.47;;;6.00;99.90;;;;;;4942522;28;20190;-78
2020/12/02 00:29:40;;;;;;;18.58;13.18;;;5.90;99.90;;;;;;4963630;28;20446;-78
2020/12/02 00:32:06;;;;;;;19.50;12.55;;;5.90;99.90;;;;;;4972113;28;20666;-79
2020/12/02 00:34:32;;;;;;;21.73;14.73;;;6.00;99.90;;;;;;4960180;28;20227;-78
2020/12/02 00:36:58;;;;;;;19.93;14.43;;;6.00;99.90;;;;;;4943110;28;20183;-78
2020/12/02 00:39:23;;;;;;;19.50;14.63;;;6.00;99.90;;;;;;4967543;28;20245;-78
2020/12/02 00:41:49;;;;;;;22.47;14.90;;;6.00;99.90;;;;;;4953423;28;20453;-78
2020/12/02 00:44:16;;;;;;;18.87;14.40;;;5.90;99.90;;;;;;4953186;28;20224;-78
2020/12/02 00:46:47;;;;;;;21.23;15.48;;;6.00;99.90;;;;;;4951541;28;20250;-79
2020/12/02 00:49:14;;;;;;;24.33;15.60;;;5.90;99.90;;;;;;4971681;28;20211;-79
2020/12/02 00:51:40;;;;;;;19.67;15.07;;;5.90;99.90;;;;;;4960240;28;20542;-79
2020/12/02 00:54:07;;;;;;;20.83;16.73;;;5.90;99.90;;;;;;4952476;28;20212;-79
2020/12/02 00:56:33;;;;;;;21.23;15.00;;;5.90;99.90;;;;;;4943194;28;20231;-79
2020/12/02 00:59:21;;;;;;;20.77;13.07;;;5.90;99.90;;;;;;4959048;28;20167;-78
2020/12/02 01:02:05;;;;;;;21.02;14.50;;;5.90;99.90;;;;;;4972258;28;20179;-78
2020/12/02 01:04:30;;;;;;;19.52;14.15;;;5.90;99.90;;;;;;4948891;28;20718;-78
2020/12/02 01:06:57;;;;;;;20.73;14.83;;;5.90;99.90;;;;;;4948336;28;20210;-78
2020/12/02 01:09:25;;;;;;;22.83;13.88;;;5.90;99.90;;;;;;4971378;28;20302;-79
2020/12/02 01:11:54;;;;;;;16.63;12.63;;;6.00;99.90;;;;;;4958743;28;20200;-79
2020/12/02 01:14:21;;;;;;;20.63;14.02;;;6.00;99.90;;;;;;4946722;28;20220;-79
2020/12/02 01:16:51;;;;;;;18.30;15.55;;;6.00;99.90;;;;;;4942551;28;20275;-78
2020/12/02 01:19:22;;;;;;;20.83;14.00;;;6.00;99.90;;;;;;4964945;28;20211;-78
2020/12/02 01:21:50;;;;;;;20.25;14.88;;;6.00;99.90;;;;;;4957906;28;20500;-77
2020/12/02 01:24:21;;;;;;;18.27;13.85;;;6.00;99.90;;;;;;4962334;28;20274;-78
2020/12/02 01:26:53;;;;;;;23.35;14.55;;;6.00;99.90;;;;;;4943307;28;20607;-78
2020/12/02 01:29:23;;;;;;;19.90;16.85;;;5.90;99.90;;;;;;4952289;28;20212;-78
2020/12/02 01:31:52;;;;;;;20.75;15.50;;;5.90;99.90;;;;;;4966716;28;20543;-79
2020/12/02 01:34:19;;;;;;;26.25;16.63;;;5.90;99.90;;;;;;4959956;28;20225;-78
2020/12/02 01:37:05;;;;;;;22.35;16.70;;;5.90;99.90;;;;;;4954925;28;20254;-79
2020/12/02 01:40:00;;;;;;;20.05;14.93;;;5.90;99.90;;;;;;4969956;28;20569;-78
2020/12/02 01:42:26;;;;;;;22.02;16.25;;;5.80;99.90;;;;;;4958419;28;20207;-79
2020/12/02 01:44:51;;;;;;;19.43;14.77;;;5.90;99.90;;;;;;4956787;28;20228;-79
2020/12/02 01:47:35;;;;;;;19.97;14.63;;;5.90;99.90;;;;;;4957867;28;20255;-78
2020/12/02 01:50:19;;;;;;;23.73;15.32;;;6.00;99.90;;;;;;4955645;28;20668;-78
2020/12/02 01:53:22;;;;;;;19.80;15.35;;;6.00;99.90;;;;;;4960637;28;20194;-78
2020/12/02 01:55:55;;;;;;;22.50;15.93;;;5.90;99.90;;;;;;4936393;28;20211;-79
2020/12/02 01:58:31;;;;;;;25.20;17.67;;;5.90;99.90;;;;;;4971271;28;20175;-78
2020/12/02 02:01:13;;;;;;;21.23;15.88;;;5.90;99.90;;;;;;4968219;28;20203;-79
2020/12/02 02:03:39;;;;;;;25.17;18.55;;;5.90;99.90;;;;;;4960794;28;20195;-77
2020/12/02 02:06:16;;;;;;;19.92;16.70;;;5.90;99.90;;;;;;4947985;28;20311;-78
2020/12/02 02:08:42;;;;;;;22.33;14.95;;;5.80;99.90;;;;;;4971212;28;20214;-78
2020/12/02 02:11:13;;;;;;;20.33;14.80;;;5.80;99.90;;;;;;4974163;28;20261;-78
2020/12/02 02:14:09;;;;;;;23.15;15.57;;;5.80;99.90;;;;;;4970521;28;20199;-78
2020/12/02 02:16:41;;;;;;;27.88;17.63;;;5.80;99.90;;;;;;4951460;28;20225;-78
2020/12/02 02:19:19;;;;;;;26.67;16.98;;;5.70;99.90;;;;;;4973840;28;20559;-77
2020/12/02 02:21:46;;;;;;;30.48;16.95;;;5.70;99.90;;;;;;4958920;28;20161;-78
2020/12/02 02:24:12;;;;;;;26.13;16.83;;;5.70;99.90;;;;;;4955267;28;20303;-77
2020/12/02 02:26:40;;;;;;;26.23;16.90;;;5.70;99.90;;;;;;4943932;28;20267;-77
2020/12/02 02:29:26;;;;;;;21.60;13.60;;;5.60;99.90;;;;;;4972007;28;20293;-78
2020/12/02 02:32:02;;;;;;;21.52;15.35;;;5.60;99.90;;;;;;4947666;28;20219;-79
2020/12/02 02:34:29;;;;;;;20.40;15.55;;;5.60;99.90;;;;;;4963482;28;20222;-78
2020/12/02 02:36:57;;;;;;;22.05;13.48;;;5.60;99.90;;;;;;4953656;28;20206;-79
2020/12/02 02:39:23;;;;;;;25.98;15.20;;;5.60;99.90;;;;;;4964130;28;20259;-79
2020/12/02 02:42:06;;;;;;;21.35;13.70;;;5.60;99.90;;;;;;4961207;28;20160;-79
2020/12/02 02:44:33;;;;;;;26.15;14.95;;;5.70;99.90;;;;;;4969468;28;20494;-78
2020/12/02 02:46:58;;;;;;;22.83;15.93;;;5.70;99.90;;;;;;4958575;28;20172;-79
2020/12/02 02:49:25;;;;;;;19.10;13.73;;;5.70;99.90;;;;;;4973015;28;20206;-79
2020/12/02 02:51:51;;;;;;;21.42;14.25;;;5.70;99.90;;;;;;4960424;28;20502;-79
2020/12/02 02:54:17;;;;;;;25.58;16.17;;;5.70;99.90;;;;;;4954536;28;20223;-79
2020/12/02 02:56:43;;;;;;;17.20;13.57;;;5.70;99.90;;;;;;4945417;28;20175;-79
2020/12/02 02:59:10;;;;;;;23.60;15.05;;;5.70;99.90;;;;;;4969743;28;20207;-79
2020/12/02 03:01:43;;;;;;;21.35;14.82;;;5.60;99.90;;;;;;4945129;28;20179;-78
2020/12/02 03:04:09;;;;;;;21.13;15.15;;;5.60;99.90;;;;;;4954535;28;20278;-79
2020/12/02 03:06:37;;;;;;;21.52;15.48;;;5.70;99.90;;;;;;4957190;28;20175;-79
2020/12/02 03:09:05;;;;;;;20.88;15.02;;;5.70;99.90;;;;;;4960893;28;20206;-78
2020/12/02 03:11:32;;;;;;;22.45;15.70;;;5.60;99.90;;;;;;4973272;28;20183;-79
2020/12/02 03:13:57;;;;;;;22.90;14.57;;;5.60;99.90;;;;;;4953892;28;20659;-79
2020/12/02 03:16:48;;;;;;;21.07;14.20;;;5.60;99.90;;;;;;4949054;28;20208;-78
2020/12/02 03:19:18;;;;;;;19.65;14.50;;;5.60;99.90;;;;;;4951555;28;20266;-79
2020/12/02 03:21:43;;;;;;;19.48;14.02;;;5.60;99.90;;;;;;4973543;28;20230;-79
2020/12/02 03:24:10;;;;;;;21.80;14.60;;;5.50;99.90;;;;;;4965204;28;20216;-78
2020/12/02 03:26:37;;;;;;;19.98;13.73;;;5.60;99.90;;;;;;4944459;28;20171;-79
2020/12/02 03:29:02;;;;;;;17.52;12.88;;;5.60;99.90;;;;;;4957950;28;20239;-78
2020/12/02 03:31:28;;;;;;;21.80;15.53;;;5.60;99.90;;;;;;4954559;28;20531;-79
2020/12/02 03:33:54;;;;;;;22.23;14.17;;;5.60;99.90;;;;;;4959044;28;20972;-80
2020/12/02 03:36:20;;;;;;;21.43;14.63;;;5.60;99.90;;;;;;4962838;28;20176;-79
2020/12/02 03:38:47;;;;;;;19.63;14.48;;;5.60;99.90;;;;;;4953956;28;20176;-78
2020/12/02 03:41:14;;;;;;;22.42;14.35;;;5.70;99.90;;;;;;4969647;28;20179;-79
2020/12/02 03:43:40;;;;;;;19.23;13.23;;;5.70;99.90;;;;;;4954264;28;20266;-78
2020/12/02 03:46:06;;;;;;;23.20;13.93;;;5.60;99.90;;;;;;4948758;28;20267;-79
2020/12/02 03:48:32;;;;;;;19.27;13.10;;;5.70;99.90;;;;;;4946142;28;20172;-79
2020/12/02 03:50:58;;;;;;;16.70;13.43;;;5.60;99.90;;;;;;4967586;28;20821;-78
2020/12/02 03:53:24;;;;;;;18.95;13.93;;;5.60;99.90;;;;;;4956085;28;20199;-79
2020/12/02 03:55:49;;;;;;;19.13;12.93;;;5.60;99.90;;;;;;4952343;28;20628;-79
2020/12/02 03:58:15;;;;;;;15.53;12.33;;;5.60;99.90;;;;;;4953684;28;20415;-78
2020/12/02 04:00:41;;;;;;;17.95;13.15;;;5.60;99.90;;;;;;4968598;28;20204;-78
2020/12/02 04:03:07;;;;;;;18.90;13.87;;;5.60;99.90;;;;;;4963573;28;20647;-77
2020/12/02 04:05:33;;;;;;;19.23;13.90;;;5.50;99.90;;;;;;4966866;28;20868;-79
2020/12/02 04:07:59;;;;;;;16.88;11.82;;;5.50;99.90;;;;;;4966431;28;20179;-78
2020/12/02 04:10:25;;;;;;;24.60;14.40;;;5.60;99.90;;;;;;4962441;28;20218;-78
2020/12/02 04:12:50;;;;;;;19.60;14.27;;;5.60;99.90;;;;;;4967518;28;20805;-78
2020/12/02 04:15:19;;;;;;;20.07;13.80;;;5.60;99.90;;;;;;4948314;28;20252;-78
2020/12/02 04:17:45;;;;;;;21.83;13.75;;;5.50;99.90;;;;;;4942546;28;20439;-78
2020/12/02 04:20:11;;;;;;;20.05;14.27;;;5.50;99.90;;;;;;4961144;28;20250;-79
2020/12/02 04:22:38;;;;;;;21.37;14.60;;;5.50;99.90;;;;;;4961055;28;20535;-79
2020/12/02 04:25:05;;;;;;;22.88;13.43;;;5.50;99.90;;;;;;4951857;28;20302;-78
2020/12/02 04:27:31;;;;;;;19.70;14.95;;;5.50;99.90;;;;;;4942500;28;20542;-79
2020/12/02 04:29:57;;;;;;;20.20;13.13;;;5.50;99.90;;;;;;4953636;28;20258;-78
2020/12/02 04:32:22;;;;;;;20.40;13.00;;;5.50;99.90;;;;;;4953489;28;21049;-79
2020/12/02 04:34:48;;;;;;;19.13;12.83;;;5.50;99.90;;;;;;4967074;28;20211;-78
2020/12/02 04:37:14;;;;;;;19.17;13.57;;;5.50;99.90;;;;;;4941075;28;20177;-77
2020/12/02 04:39:41;;;;;;;19.08;14.93;;;5.50;99.90;;;;;;4971745;28;20666;-78
2020/12/02 04:42:09;;;;;;;18.70;13.40;;;5.50;99.90;;;;;;4965149;28;20186;-78
2020/12/02 04:44:35;;;;;;;21.00;12.95;;;5.50;99.90;;;;;;4947149;28;20216;-78
2020/12/02 04:47:02;;;;;;;25.05;15.13;;;5.50;99.90;;;;;;4946508;28;20189;-77
2020/12/02 04:49:32;;;;;;;26.30;14.68;;;5.50;99.90;;;;;;4961408;28;20222;-77
2020/12/02 04:52:02;;;;;;;19.65;13.18;;;5.50;99.90;;;;;;4953306;28;20211;-78
2020/12/02 04:54:28;;;;;;;22.52;14.98;;;5.50;99.90;;;;;;4967392;28;20224;-77
2020/12/02 04:56:54;;;;;;;24.50;15.20;;;5.50;99.90;;;;;;4945468;28;20206;-77
2020/12/02 04:59:33;;;;;;;23.83;16.50;;;5.50;99.90;;;;;;4970236;28;20235;-78
2020/12/02 05:01:59;;;;;;;26.27;15.82;;;5.50;99.90;;;;;;4963819;28;20171;-77
2020/12/02 05:04:27;;;;;;;24.57;15.50;;;5.50;99.90;;;;;;4949752;28;20212;-77
2020/12/02 05:07:16;;;;;;;25.65;14.95;;;5.50;99.90;;;;;;4955091;28;20197;-78
2020/12/02 05:09:55;;;;;;;27.02;15.23;;;5.60;99.90;;;;;;4972502;28;20214;-77
2020/12/02 05:12:31;;;;;;;25.90;15.30;;;5.60;99.90;;;;;;4959482;28;20204;-77
2020/12/02 05:15:27;;;;;;;26.48;15.00;;;5.60;99.90;;;;;;4974011;28;20211;-80
2020/12/02 05:18:09;;;;;;;21.60;14.30;;;5.50;99.90;;;;;;4962225;28;20726;-78
2020/12/02 05:20:35;;;;;;;25.20;18.13;;;5.50;99.90;;;;;;4970859;28;20210;-79
2020/12/02 05:23:18;;;;;;;31.77;18.20;;;5.50;99.90;;;;;;4961670;28;20265;-78
2020/12/02 05:25:44;;;;;;;27.73;16.67;;;5.50;99.90;;;;;;4960305;28;20783;-79
2020/12/02 05:28:39;;;;;;;27.10;16.47;;;5.50;99.90;;;;;;4951866;28;20188;-79
2020/12/02 05:31:20;;;;;;;28.65;16.15;;;5.50;99.90;;;;;;4943134;28;20525;-78
2020/12/02 05:33:46;;;;;;;29.65;17.30;;;5.50;99.90;;;;;;4961905;28;20721;-78
2020/12/02 05:36:20;;;;;;;27.05;16.45;;;5.50;99.90;;;;;;4951016;28;20567;-79
2020/12/02 05:38:55;;;;;;;31.08;16.05;;;5.50;99.90;;;;;;4954648;28;20168;-79
2020/12/02 05:41:24;;;;;;;25.90;16.70;;;5.50;99.90;;;;;;4963314;28;20167;-78
2020/12/02 05:44:17;;;;;;;29.30;16.70;;;5.50;99.90;;;;;;4959951;28;20223;-78
2020/12/02 05:46:49;;;;;;;28.15;17.45;;;5.50;99.90;;;;;;4946041;28;20195;-78
2020/12/02 05:49:45;;;;;;;31.70;17.15;;;5.50;99.90;;;;;;4961232;28;20218;-78
2020/12/02 05:52:28;;;;;;;27.73;18.05;;;5.60;99.90;;;;;;4956981;28;20207;-77
2020/12/02 05:55:09;;;;;;;32.38;17.42;;;5.60;99.90;;;;;;4957465;28;20207;-79
2020/12/02 05:57:41;;;;;;;25.63;15.38;;;5.50;99.90;;;;;;4963169;28;20583;-79
2020/12/02 06:00:11;;;;;;;30.80;16.85;;;5.50;99.90;;;;;;4964518;28;20206;-79
2020/12/02 06:02:38;;;;;;;34.08;19.35;;;5.50;99.90;;;;;;4953978;28;20186;-80
2020/12/02 06:05:10;;;;;;;26.80;16.45;;;5.50;99.90;;;;;;4955583;28;20207;-79
2020/12/02 06:07:55;;;;;;;31.67;18.05;;;5.50;99.90;;;;;;4965361;28;20589;-78
2020/12/02 06:10:31;;;;;;;32.25;18.27;;;5.50;99.90;;;;;;4963041;28;20710;-79
2020/12/02 06:12:57;;;;;;;30.83;17.17;;;5.50;99.90;;;;;;4965876;28;20203;-78
2020/12/02 06:15:24;;;;;;;29.80;18.37;;;5.50;99.90;;;;;;4963208;28;20217;-78
2020/12/02 06:18:11;;;;;;;33.50;19.13;;;5.50;99.90;;;;;;4953291;28;20191;-79
2020/12/02 06:20:42;;;;;;;29.60;17.77;;;5.50;99.90;;;;;;4959476;28;20223;-79
2020/12/02 06:23:09;;;;;;;24.77;16.95;;;5.50;99.90;;;;;;4960766;28;20630;-77
2020/12/02 06:25:52;;;;;;;30.77;19.05;;;5.50;99.90;;;;;;4953301;28;20227;-77
2020/12/02 06:28:29;;;;;;;23.60;15.07;;;5.50;99.90;;;;;;4952183;28;20176;-78
2020/12/02 06:31:05;;;;;;;30.10;18.67;;;5.50;99.90;;;;;;4971622;28;20330;-79
2020/12/02 06:33:36;;;;;;;27.67;17.77;;;5.40;99.90;;;;;;4953938;28;20539;-79
2020/12/02 06:36:26;;;;;;;28.67;17.58;;;5.40;99.90;;;;;;4958484;28;20223;-78
2020/12/02 06:39:05;;;;;;;26.25;16.40;;;5.40;99.90;;;;;;4961667;28;20179;-78
2020/12/02 06:41:35;;;;;;;29.15;17.05;;;5.40;99.90;;;;;;4958172;28;20626;-78
2020/12/02 06:44:17;;;;;;;23.15;14.88;;;5.40;99.90;;;;;;4951523;28;20203;-78
2020/12/02 06:47:15;;;;;;;22.73;16.05;;;5.40;99.90;;;;;;4934075;29;20763;-79
2020/12/02 06:49:41;;;;;;;17.33;11.55;;;5.40;99.90;;;;;;4945222;28;20626;-78
2020/12/02 06:52:08;;;;;;;18.23;12.60;;;5.40;99.90;;;;;;4953540;28;20202;-78
2020/12/02 06:54:38;;;;;;;17.08;11.43;;;5.30;99.90;;;;;;4955327;28;20211;-78
2020/12/02 06:57:18;;;;;;;16.90;11.93;;;5.40;99.90;;;;;;4949301;28;20180;-77
2020/12/02 06:59:48;;;;;;;14.02;10.48;;;5.30;99.90;;;;;;4942224;28;20681;-78
2020/12/02 07:02:39;;;;;;;14.95;10.45;;;5.40;99.90;;;;;;4957111;28;20184;-79
2020/12/02 07:05:12;;;;;;;14.10;10.20;;;5.40;99.90;;;;;;4957883;28;20212;-79
2020/12/02 07:07:37;;;;;;;14.73;11.70;;;5.40;99.90;;;;;;4941187;28;20573;-78
2020/12/02 07:10:03;;;;;;;16.27;11.43;;;5.40;99.90;;;;;;4970983;28;20303;-78
2020/12/02 07:12:30;;;;;;;14.80;10.73;;;5.40;99.90;;;;;;4953184;28;20235;-78
2020/12/02 07:15:00;;;;;;;21.17;11.25;;;5.30;99.90;;;;;;4954623;28;20492;-78
2020/12/02 07:17:26;;;;;;;19.00;11.73;;;5.40;99.90;;;;;;4956638;28;20184;-78
2020/12/02 07:19:52;;;;;;;16.90;10.20;;;5.30;99.90;;;;;;4965113;28;20619;-78
2020/12/02 07:22:26;;;;;;;14.05;10.32;;;5.30;99.90;;;;;;4970583;28;20242;-77
2020/12/02 07:24:58;;;;;;;18.90;12.30;;;5.30;99.90;;;;;;4967544;28;20709;-77
2020/12/02 07:27:23;;;;;;;17.23;10.50;;;5.30;99.90;;;;;;4939904;28;20547;-77
2020/12/02 07:29:58;;;;;;;17.87;13.00;;;5.30;99.90;;;;;;4971303;28;20237;-77
2020/12/02 07:32:23;;;;;;;14.80;11.27;;;5.30;99.90;;;;;;4963510;28;20215;-78
2020/12/02 07:34:58;;;;;;;12.40;10.37;;;5.20;99.90;;;;;;4946920;28;20271;-78
2020/12/02 07:37:23;;;;;;;14.18;10.32;;;5.30;99.90;;;;;;4943329;28;20183;-78
2020/12/02 07:39:56;;;;;;;16.53;10.43;;;5.30;99.90;;;;;;4959562;28;20211;-79
2020/12/02 07:42:24;;;;;;;21.60;11.85;;;5.30;99.90;;;;;;4971053;28;20681;-79
2020/12/02 07:45:15;;;;;;;13.57;9.85;;;5.30;99.90;;;;;;4971728;28;20223;-79
2020/12/02 07:48:11;;;;;;;15.82;11.40;;;5.30;99.90;;;;;;4939141;28;20175;-78
2020/12/02 07:50:44;;;;;;;16.05;12.05;;;5.20;99.90;;;;;;4949777;28;20294;-78
2020/12/02 07:53:25;;;;;;;16.02;11.23;;;5.20;99.90;;;;;;4959835;28;20195;-78
2020/12/02 07:55:52;;;;;;;14.98;12.13;;;5.20;99.90;;;;;;4950495;28;20227;-78
2020/12/02 07:58:31;;;;;;;17.83;11.50;;;5.20;99.90;;;;;;4944733;28;20175;-79
2020/12/02 08:01:05;;;;;;;22.30;12.23;;;5.10;99.90;;;;;;4966328;28;20695;-78
2020/12/02 08:03:37;;;;;;;16.75;12.00;;;5.10;99.90;;;;;;4964156;28;20238;-78
2020/12/02 08:06:09;;;;;;;18.75;12.15;;;5.10;99.90;;;;;;4962072;28;20235;-77
2020/12/02 08:08:34;;;;;;;17.65;11.70;;;5.10;99.90;;;;;;4972029;28;20685;-77
2020/12/02 08:11:16;;;;;;;16.37;11.10;;;5.20;99.90;;;;;;4957849;28;20250;-77
2020/12/02 08:13:54;;;;;;;14.90;11.05;;;5.20;99.90;;;;;;4954461;28;20199;-78
2020/12/02 08:16:37;;;;;;;14.70;10.23;;;5.10;99.90;;;;;;4948727;28;20390;-77
2020/12/02 08:19:05;;;;;;;15.70;11.13;;;5.10;99.90;;;;;;4971929;28;20215;-78
2020/12/02 08:21:32;;;;;;;13.30;10.30;;;5.10;99.90;;;;;;4953992;28;20160;-77
2020/12/02 08:24:15;;;;;;;14.93;10.55;;;5.10;99.90;;;;;;4954937;28;20245;-77
2020/12/02 08:26:43;;;;;;;15.05;10.77;;;5.10;99.90;;;;;;4942995;28;20216;-77
2020/12/02 08:29:10;;;;;;;13.38;10.40;;;5.10;99.90;;;;;;4964789;28;20218;-77
2020/12/02 08:31:37;;;;;;;14.88;11.55;;;5.10;99.90;;;;;;4940860;28;20183;-79
2020/12/02 08:34:10;;;;;;;15.38;11.73;;;5.10;99.90;;;;;;4965013;28;20250;-78
2020/12/02 08:36:37;;;;;;;15.98;11.50;;;5.10;99.90;;;;;;4955918;28;20195;-78
2020/12/02 08:39:04;;;;;;;12.98;10.43;;;5.10;99.90;;;;;;4959553;28;20215;-78
2020/12/02 08:41:47;;;;;;;15.02;11.90;;;5.10;99.90;;;;;;4972188;28;20183;-78
2020/12/02 08:44:16;;;;;;;12.95;11.23;;;5.10;99.90;;;;;;4955735;28;20260;-77
2020/12/02 08:47:09;;;;;;;14.38;10.90;;;5.10;99.90;;;;;;4952552;28;20532;-77
2020/12/02 08:49:36;;;;;;;14.93;10.82;;;5.20;99.90;;;;;;4972791;28;20222;-78
2020/12/02 08:52:03;;;;;;;13.88;11.00;;;5.10;99.90;;;;;;4967749;28;20178;-77
2020/12/02 08:54:29;;;;;;;15.25;11.38;;;5.10;99.90;;;;;;4973007;28;20662;-79
2020/12/02 08:57:03;;;;;;;18.03;12.87;;;5.10;99.90;;;;;;4952707;28;20280;-78
2020/12/02 08:59:29;;;;;;;14.38;11.02;;;5.10;99.90;;;;;;4964231;28;20489;-79
2020/12/02 09:02:03;;;;;;;18.87;12.03;;;5.20;99.90;;;;;;4962772;28;20202;-79
2020/12/02 09:04:29;;;;;;;16.63;12.55;;;5.20;99.90;;;;;;4970862;28;20720;-78
2020/12/02 09:06:54;;;;;;;15.73;11.93;;;5.20;99.90;;;;;;4962864;28;20179;-78
2020/12/02 09:09:20;;;;;;;16.37;12.53;;;5.10;99.90;;;;;;4959083;28;20211;-78
2020/12/02 09:11:46;;;;;;;17.80;12.77;;;5.10;99.90;;;;;;4975909;28;20182;-78
2020/12/02 09:14:11;;;;;;;15.80;12.17;;;5.00;99.90;;;;;;4959663;28;20211;-78
2020/12/02 09:16:40;;;;;;;14.07;11.83;;;5.10;99.90;;;;;;4951089;28;20199;-78
2020/12/02 09:19:10;;;;;;;18.23;12.75;;;5.10;99.90;;;;;;4967813;28;20214;-78
2020/12/02 09:21:36;;;;;;;15.02;11.38;;;5.10;99.90;;;;;;4964740;28;20175;-78
2020/12/02 09:24:02;;;;;;;14.40;12.20;;;5.20;99.90;;;;;;4951455;28;20227;-79
2020/12/02 09:26:31;;;;;;;21.42;14.02;;;5.10;99.90;;;;;;4963121;28;20680;-78
2020/12/02 09:28:57;;;;;;;14.80;12.20;;;5.10;99.90;;;;;;4962001;28;20542;-78
2020/12/02 09:31:25;;;;;;;14.10;11.35;;;5.20;99.90;;;;;;4965975;28;20647;-78
2020/12/02 09:33:51;;;;;;;16.10;12.23;;;5.20;99.90;;;;;;4959021;28;20208;-77
2020/12/02 09:36:18;;;;;;;12.40;10.47;;;5.20;99.90;;;;;;4940783;28;20592;-78
2020/12/02 09:38:46;;;;;;;13.13;11.73;;;5.20;99.90;;;;;;4965287;28;20795;-78
2020/12/02 09:41:36;;;;;;;16.83;13.48;;;5.20;99.90;;;;;;4958304;28;20160;-77
2020/12/02 09:44:20;;;;;;;14.38;11.45;;;5.20;99.90;;;;;;4954593;28;20651;-78
2020/12/02 09:46:57;;;;;;;17.77;13.48;;;5.20;99.90;;;;;;4950031;28;20188;-77
2020/12/02 09:49:23;;;;;;;16.83;14.13;;;5.20;99.90;;;;;;4963981;28;20208;-78
2020/12/02 09:52:08;;;;;;;17.57;12.00;;;5.30;99.90;;;;;;4956262;29;20179;-77
2020/12/02 09:54:41;;;;;;;16.05;11.90;;;5.30;99.90;;;;;;4965378;28;20504;-78
2020/12/02 09:57:29;;;;;;;15.95;11.63;;;5.30;99.90;;;;;;4954788;28;20589;-78
2020/12/02 09:59:59;;;;;;;17.73;12.05;;;5.30;99.90;;;;;;4955358;28;20247;-78
2020/12/02 10:02:36;;;;;;;15.50;11.38;;;5.40;99.90;;;;;;4956393;28;20532;-77
2020/12/02 10:05:12;;;;;;;14.95;11.80;;;5.30;99.90;;;;;;4973266;28;20206;-79
2020/12/02 10:07:50;;;;;;;13.20;11.35;;;5.30;99.90;;;;;;4940454;29;20181;-78
2020/12/02 10:10:33;;;;;;;13.35;11.32;;;5.30;99.90;;;;;;4935985;29;20216;-77
2020/12/02 10:13:33;;;;;;;15.10;11.10;;;5.30;99.90;;;;;;4936677;29;20196;-77
2020/12/02 10:16:23;;;;;;;17.25;11.68;;;5.30;99.90;;;;;;4944282;29;20703;-77
2020/12/02 10:19:03;;;;;;;14.52;10.88;;;5.30;99.90;;;;;;4936819;29;20320;-77
2020/12/02 10:21:35;;;;;;;13.50;11.20;;;5.30;99.90;;;;;;4934999;29;20177;-77
2020/12/02 10:24:17;;;;;;;15.88;10.50;;;5.40;99.90;;;;;;4935682;29;20691;-78
2020/12/02 10:27:07;;;;;;;14.00;10.30;;;5.40;99.90;;;;;;4936948;29;20297;-77
2020/12/02 10:29:49;;;;;;;14.60;11.73;;;5.40;99.90;;;;;;4957963;28;20307;-77
2020/12/02 10:32:36;;;;;;;14.90;11.85;;;5.40;99.90;;;;;;4965293;28;20206;-76
2020/12/02 10:35:07;;;;;;;15.00;10.77;;;5.40;99.90;;;;;;4960181;28;20211;-77
2020/12/02 10:37:37;;;;;;;14.68;11.40;;;5.40;99.90;;;;;;4948201;28;20176;-77
2020/12/02 10:40:05;;;;;;;15.82;11.65;;;5.50;99.90;;;;;;4959710;28;20203;-77
2020/12/02 10:42:54;;;;;;;16.25;10.20;;;5.50;99.90;;;;;;4965291;28;20658;-77
2020/12/02 10:45:22;;;;;;;15.55;11.20;;;5.60;99.90;;;;;;4949863;28;20307;-76
2020/12/02 10:48:15;;;;;;;13.93;10.30;;;5.50;99.90;;;;;;4963226;28;20171;-76
2020/12/02 10:50:41;;;;;;;11.75;9.63;;;5.50;99.90;;;;;;4966385;28;20215;-76
2020/12/02 10:53:16;;;;;;;15.30;11.03;;;5.50;99.90;;;;;;4974633;28;20732;-77
2020/12/02 10:55:42;;;;;;;13.25;10.15;;;5.60;99.90;;;;;;4955882;28;21012;-77
2020/12/02 10:58:20;;;;;;;12.20;10.30;;;5.60;99.90;;;;;;4945559;28;20195;-77
2020/12/02 11:00:53;;;;;;;14.05;10.55;;;5.60;99.90;;;;;;4940672;28;20242;-77
2020/12/02 11:03:21;;;;;;;16.10;11.10;;;5.60;99.90;;;;;;4959655;28;20164;-76
2020/12/02 11:06:00;;;;;;;15.80;11.45;;;5.60;99.90;;;;;;4970358;28;20207;-76
2020/12/02 11:08:48;;;;;;;12.90;9.75;;;5.70;99.90;;;;;;4955009;28;20172;-77
2020/12/02 11:11:38;;;;;;;12.65;9.55;;;5.70;99.90;;;;;;4951113;28;20204;-77
2020/12/02 11:14:32;;;;;;;17.15;11.25;;;5.70;99.90;;;;;;4943628;28;20318;-77
2020/12/02 11:17:19;;;;;;;13.80;10.43;;;5.70;99.90;;;;;;4937640;28;20544;-78
2020/12/02 11:20:08;;;;;;;12.77;9.38;;;5.70;99.90;;;;;;4960912;28;20228;-77
2020/12/02 11:22:56;;;;;;;13.10;9.93;;;5.80;99.90;;;;;;4962567;28;20345;-77
2020/12/02 11:25:45;;;;;;;14.10;10.52;;;5.70;99.90;;;;;;4944776;28;20216;-77
2020/12/02 11:28:11;;;;;;;11.70;9.70;;;5.80;99.90;;;;;;4958069;28;20180;-77
2020/12/02 11:30:40;;;;;;;11.73;9.97;;;5.80;99.90;;;;;;4965398;28;20255;-77
2020/12/02 11:33:40;;;;;;;9.80;8.52;;;5.90;99.90;;;;;;4954734;28;20199;-77
2020/12/02 11:36:26;;;;;;;13.65;10.27;;;5.90;99.90;;;;;;4946291;28;20215;-78
2020/12/02 11:39:14;;;;;;;12.75;9.25;;;5.80;99.90;;;;;;4964355;28;20176;-79
2020/12/02 11:42:12;;;;;;;15.85;10.95;;;5.80;99.90;;;;;;4969811;28;20646;-78
2020/12/02 11:44:49;;;;;;;13.82;10.98;;;5.80;99.90;;;;;;4962634;28;20226;-78
2020/12/02 11:47:37;;;;;;;12.65;10.57;;;5.80;99.90;;;;;;4952016;28;20167;-78
2020/12/02 11:50:16;;;;;;;13.82;10.88;;;5.80;99.90;;;;;;4965192;28;20210;-79
2020/12/02 11:53:05;;;;;;;12.60;10.50;;;5.80;99.90;;;;;;4961886;28;20199;-78
2020/12/02 11:55:34;;;;;;;14.15;11.70;;;5.80;99.90;;;;;;4960155;28;20212;-78
2020/12/02 11:58:03;;;;;;;12.50;10.43;;;5.80;99.90;;;;;;4952874;28;20634;-78
2020/12/02 12:00:29;;;;;;;14.40;11.27;;;5.80;99.90;;;;;;4972124;28;20215;-78
2020/12/02 12:03:28;;;;;;;12.40;9.57;;;5.90;99.90;;;;;;4967247;28;20183;-78
2020/12/02 12:05:56;;;;;;;15.82;11.13;;;5.80;99.90;;;;;;4951830;28;20204;-78
2020/12/02 12:08:33;;;;;;;14.45;10.98;;;5.90;99.90;;;;;;4954707;28;20655;-78
2020/12/02 12:11:08;;;;;;;14.40;11.40;;;5.80;99.90;;;;;;4962543;28;20306;-78
2020/12/02 12:13:43;;;;;;;14.95;10.43;;;5.90;99.90;;;;;;4969447;28;20195;-78
2020/12/02 12:16:32;;;;;;;13.68;10.75;;;5.90;99.90;;;;;;4948424;28;20224;-78
2020/12/02 12:19:30;;;;;;;13.43;10.75;;;5.90;99.90;;;;;;4955109;28;20542;-78
2020/12/02 12:22:08;;;;;;;15.52;11.02;;;5.90;99.90;;;;;;4961338;28;20198;-78
2020/12/02 12:24:33;;;;;;;13.60;10.30;;;5.90;99.90;;;;;;4973497;28;20215;-79
2020/12/02 12:26:59;;;;;;;13.10;9.00;;;5.80;99.90;;;;;;4947957;28;20179;-78
2020/12/02 12:29:25;;;;;;;14.77;10.67;;;5.90;99.90;;;;;;4968490;28;20210;-78
2020/12/02 12:31:59;;;;;;;15.00;11.37;;;5.90;99.90;;;;;;4967234;28;20176;-78
2020/12/02 12:34:31;;;;;;;16.85;11.95;;;5.90;99.90;;;;;;4954612;28;20241;-78
2020/12/02 12:37:03;;;;;;;13.30;11.07;;;6.00;99.90;;;;;;4948225;28;20227;-78
2020/12/02 12:39:37;;;;;;;14.32;10.63;;;5.90;99.90;;;;;;4961794;28;20219;-78
2020/12/02 12:42:03;;;;;;;17.42;11.15;;;5.90;99.90;;;;;;4953618;28;20215;-78
2020/12/02 12:44:36;;;;;;;15.07;11.07;;;5.90;99.90;;;;;;4956287;28;20212;-78
2020/12/02 12:47:25;;;;;;;15.35;10.85;;;5.90;99.90;;;;;;4941708;28;20615;-79
2020/12/02 12:49:53;;;;;;;15.85;10.98;;;5.90;99.90;;;;;;4947713;28;20214;-78
2020/12/02 12:52:25;;;;;;;20.35;13.45;;;5.80;99.90;;;;;;4961190;28;20238;-78
2020/12/02 12:54:51;;;;;;;16.40;12.65;;;5.90;99.90;;;;;;4960040;28;20207;-78
2020/12/02 12:57:21;;;;;;;15.20;11.57;;;5.90;99.90;;;;;;4950024;28;20180;-78
2020/12/02 12:59:47;;;;;;;14.65;11.52;;;6.00;99.90;;;;;;4965563;28;20203;-78
2020/12/02 13:02:25;;;;;;;12.87;10.10;;;6.00;99.90;;;;;;4972094;28;20186;-78
2020/12/02 13:04:51;;;;;;;15.77;10.23;;;5.90;99.90;;;;;;4967680;28;20499;-77
2020/12/02 13:07:17;;;;;;;17.00;11.53;;;5.90;99.90;;;;;;4955570;28;20180;-77
2020/12/02 13:09:54;;;;;;;15.37;11.30;;;5.80;99.90;;;;;;4962982;28;20217;-77